createdAt,value
2022-12-09T00:03:41.095Z,1.92
2022-12-09T00:08:43.051Z,1.58
2022-12-09T00:13:47.825Z,1.63
2022-12-09T00:18:49.443Z,1.38
2022-12-09T00:23:51.520Z,1.83
2022-12-09T00:28:53.665Z,2.10
2022-12-09T00:33:56.930Z,1.55
2022-12-09T00:38:59.111Z,2.80
2022-12-09T00:44:00.659Z,2.17
2022-12-09T00:49:02.945Z,2.17
2022-12-09T00:54:04.683Z,2.08
2022-12-09T00:59:06.411Z,1.95
2022-12-09T01:04:10.907Z,1.83
2022-12-09T01:09:14.017Z,1.92
2022-12-09T01:14:15.864Z,1.77
2022-12-09T01:19:17.305Z,1.95
2022-12-09T01:24:19.310Z,1.70
2022-12-09T01:29:20.749Z,1.90
2022-12-09T01:34:22.240Z,1.80
2022-12-09T01:39:23.933Z,2.05
2022-12-09T01:44:26.579Z,2.08
2022-12-09T01:49:36.767Z,2.05
2022-12-09T01:54:39.672Z,2.30
2022-12-09T01:59:41.896Z,2.10
2022-12-09T02:04:46.194Z,2.90
2022-12-09T02:09:53.195Z,2.03
2022-12-09T02:15:06.791Z,1.88
2022-12-09T02:20:27.783Z,1.73
2022-12-09T02:25:29.598Z,2.35
2022-12-09T02:30:41.575Z,2.03
2022-12-09T02:35:46.256Z,1.80
2022-12-09T02:40:54.312Z,2.22
2022-12-09T02:45:56.741Z,2.60
2022-12-09T02:50:58.777Z,1.83
2022-12-09T02:56:00.572Z,1.27
2022-12-09T03:01:02.204Z,1.38
2022-12-09T03:06:07.235Z,1.80
2022-12-09T03:11:18.750Z,1.35
2022-12-09T03:16:25.248Z,1.48
2022-12-09T03:21:28.072Z,1.35
2022-12-09T03:26:32.703Z,1.40
2022-12-09T03:31:36.237Z,1.48
2022-12-09T03:36:39.114Z,2.10
2022-12-09T03:41:49.973Z,1.63
2022-12-09T03:46:51.846Z,1.25
2022-12-09T03:51:53.248Z,2.28
2022-12-09T03:56:56.937Z,1.80
2022-12-09T04:01:59.058Z,2.25
2022-12-09T04:07:01.029Z,2.17
2022-12-09T04:12:02.476Z,1.55
2022-12-09T04:17:04.144Z,1.52
2022-12-09T04:22:05.813Z,1.42
2022-12-09T04:27:07.841Z,1.83
2022-12-09T04:32:09.496Z,1.50
2022-12-09T04:37:10.991Z,1.40
2022-12-09T04:42:12.427Z,1.52
2022-12-09T04:47:14.141Z,1.83
2022-12-09T04:52:17.192Z,1.73
2022-12-09T04:57:18.838Z,2.45
2022-12-09T05:02:20.592Z,1.95
2022-12-09T05:07:23.556Z,2.05
2022-12-09T05:12:25.838Z,1.80
2022-12-09T05:17:27.667Z,2.00
2022-12-09T05:22:29.334Z,1.95
2022-12-09T05:27:30.919Z,1.63
2022-12-09T05:32:32.814Z,1.88
2022-12-09T05:37:34.530Z,1.70
2022-12-09T05:42:41.091Z,1.83
2022-12-09T05:47:43.321Z,1.85
2022-12-09T05:52:45.007Z,1.98
2022-12-09T05:57:46.506Z,2.55
2022-12-09T06:02:48.595Z,2.15
2022-12-09T06:07:50.578Z,1.48
2022-12-09T06:12:55.549Z,1.70
2022-12-09T06:17:57.338Z,2.10
2022-12-09T06:22:58.982Z,2.05
2022-12-09T06:28:00.834Z,2.45
2022-12-09T06:33:02.704Z,1.92
2022-12-09T06:38:08.113Z,2.00
2022-12-09T06:43:10.193Z,2.45
2022-12-09T06:48:11.692Z,1.95
2022-12-09T06:53:13.691Z,2.13
2022-12-09T06:58:15.123Z,1.77
2022-12-09T07:03:17.042Z,2.30
2022-12-09T07:08:18.965Z,2.17
2022-12-09T07:13:20.581Z,2.33
2022-12-09T07:18:22.210Z,2.85
2022-12-09T07:23:23.767Z,2.17
2022-12-09T07:28:25.543Z,2.15
2022-12-09T07:33:27.383Z,3.13
2022-12-09T07:38:29.322Z,3.30
2022-12-09T07:43:33.017Z,3.28
2022-12-09T07:48:35.342Z,2.72
2022-12-09T07:53:37.918Z,2.58
2022-12-09T07:58:39.727Z,2.50
2022-12-09T08:03:42.625Z,2.67
2022-12-09T08:08:44.487Z,3.25
2022-12-09T08:13:46.901Z,3.72
2022-12-09T08:18:48.823Z,4.00
2022-12-09T08:23:50.832Z,2.85
2022-12-09T08:28:52.621Z,3.58
2022-12-09T08:33:55.001Z,3.10
2022-12-09T08:38:58.930Z,3.33
2022-12-09T08:44:08.870Z,2.65
2022-12-09T08:49:11.007Z,2.85
2022-12-09T08:54:12.735Z,2.25
2022-12-09T08:59:15.224Z,2.33
2022-12-09T09:04:18.466Z,2.13
2022-12-09T09:09:21.373Z,2.15
2022-12-09T09:14:23.044Z,1.88
2022-12-09T09:19:28.074Z,2.25
2022-12-09T09:24:30.817Z,2.45
2022-12-09T09:29:32.420Z,1.95
2022-12-09T09:34:34.391Z,2.13
2022-12-09T09:39:36.196Z,2.00
2022-12-09T09:44:44.027Z,2.03
2022-12-09T09:50:02.821Z,2.45
2022-12-09T09:55:23.935Z,2.20
2022-12-09T10:00:32.538Z,1.77
2022-12-09T10:05:37.456Z,2.17
2022-12-09T10:10:39.608Z,1.60
2022-12-09T10:15:45.247Z,1.63
2022-12-09T10:20:47.757Z,2.00
2022-12-09T10:25:57.527Z,1.75
2022-12-09T10:30:59.306Z,2.45
2022-12-09T10:36:01.490Z,1.67
2022-12-09T10:41:10.452Z,1.88
2022-12-09T10:46:24.387Z,1.95
2022-12-09T10:51:31.197Z,1.30
2022-12-09T10:56:34.449Z,1.85
2022-12-09T11:01:56.677Z,1.83
2022-12-09T11:07:01.470Z,1.60
2022-12-09T11:12:08.071Z,2.15
2022-12-09T11:17:21.193Z,2.05
2022-12-09T11:22:41.870Z,1.70
2022-12-09T11:27:52.182Z,2.17
2022-12-09T11:37:56.055Z,1.77
2022-12-09T11:42:57.769Z,1.88
2022-12-09T11:48:27.684Z,1.73
2022-12-09T11:53:33.360Z,1.50
2022-12-09T11:58:40.737Z,1.48
2022-12-09T12:03:42.134Z,2.13
2022-12-09T12:08:47.474Z,2.53
2022-12-09T12:13:54.183Z,1.77
2022-12-09T12:19:27.843Z,1.92
2022-12-09T12:24:44.292Z,2.30
2022-12-09T12:29:48.784Z,2.35
2022-12-09T12:35:10.435Z,2.17
2022-12-09T12:40:29.960Z,2.25
2022-12-09T12:45:55.100Z,2.80
2022-12-09T12:51:07.564Z,1.88
2022-12-09T12:56:11.738Z,1.75
2022-12-09T13:01:13.175Z,2.25
2022-12-09T13:06:16.303Z,2.08
2022-12-09T13:11:20.591Z,1.85
2022-12-09T13:16:33.123Z,2.00
2022-12-09T13:21:34.942Z,1.27
2022-12-09T13:26:48.683Z,1.63
2022-12-09T13:31:56.010Z,1.92
2022-12-09T13:36:57.431Z,1.65
2022-12-09T13:42:17.550Z,1.20
2022-12-09T13:47:21.972Z,1.30
2022-12-09T13:52:38.499Z,1.10
2022-12-09T13:57:42.931Z,1.33
2022-12-09T14:03:04.654Z,1.25
2022-12-09T14:08:20.981Z,0.88
2022-12-09T14:13:22.389Z,1.13
2022-12-09T14:18:29.246Z,1.13
2022-12-09T14:23:30.655Z,1.75
2022-12-09T14:28:34.940Z,1.25
2022-12-09T14:33:36.371Z,2.53
2022-12-09T14:44:20.746Z,1.30
2022-12-09T14:49:27.128Z,1.25
2022-12-09T14:54:32.808Z,1.55
2022-12-09T14:59:34.511Z,1.52
2022-12-09T15:04:40.435Z,1.58
2022-12-09T15:09:48.147Z,1.25
2022-12-09T15:14:52.395Z,1.25
2022-12-09T15:20:01.653Z,1.17
2022-12-09T15:25:04.532Z,1.65
2022-12-09T15:30:21.754Z,0.90
2022-12-09T15:35:24.780Z,1.13
2022-12-09T15:40:29.277Z,1.45
2022-12-09T15:45:35.293Z,1.38
2022-12-09T15:50:40.456Z,1.63
2022-12-09T15:55:50.475Z,2.20
2022-12-09T16:00:52.775Z,1.50
2022-12-09T16:05:56.564Z,1.45
2022-12-09T16:10:58.590Z,1.83
2022-12-09T16:16:01.362Z,1.88
2022-12-09T16:21:14.859Z,1.65
2022-12-09T16:26:24.198Z,1.48
2022-12-09T16:31:25.885Z,1.05
2022-12-09T16:36:29.548Z,1.83
2022-12-09T16:41:50.908Z,1.60
2022-12-09T16:47:02.538Z,1.85
2022-12-09T16:52:04.045Z,1.75
2022-12-09T16:57:05.443Z,2.10
2022-12-09T17:02:19.740Z,2.03
2022-12-09T17:07:21.309Z,1.55
2022-12-09T17:12:22.764Z,2.70
2022-12-09T17:17:24.322Z,2.38
2022-12-09T17:22:25.778Z,2.67
2022-12-09T17:27:27.228Z,2.08
2022-12-09T17:32:28.705Z,2.97
2022-12-09T17:37:30.149Z,2.22
2022-12-09T17:42:31.592Z,2.30
2022-12-09T17:47:33.470Z,2.03
2022-12-09T17:52:35.453Z,2.08
2022-12-09T17:57:36.885Z,1.98
2022-12-09T18:02:38.565Z,1.92
2022-12-09T18:07:40.030Z,2.22
2022-12-09T18:12:41.536Z,2.20
2022-12-09T18:17:42.947Z,1.77
2022-12-09T18:22:44.361Z,2.55
2022-12-09T18:27:45.834Z,1.70
2022-12-09T18:32:47.251Z,1.65
2022-12-09T18:37:48.703Z,2.03
2022-12-09T18:42:50.718Z,3.17
2022-12-09T18:47:52.137Z,3.08
2022-12-09T18:52:53.546Z,3.03
2022-12-09T18:57:54.980Z,4.15
2022-12-09T19:02:56.441Z,3.28
2022-12-09T19:07:57.905Z,2.45
2022-12-09T19:13:00.173Z,2.13
2022-12-09T19:18:01.837Z,2.25
2022-12-09T19:23:04.909Z,1.98
2022-12-09T19:28:06.312Z,2.15
2022-12-09T19:33:07.711Z,2.33
2022-12-09T19:38:09.137Z,1.90
2022-12-09T19:43:10.608Z,1.90
2022-12-09T19:48:12.059Z,1.38
2022-12-09T19:53:13.911Z,1.63
2022-12-09T19:58:15.319Z,1.70
2022-12-09T20:03:16.821Z,1.88
2022-12-09T20:08:18.268Z,1.73
2022-12-09T20:13:19.710Z,1.88
2022-12-09T20:18:21.405Z,1.92
2022-12-09T20:23:22.791Z,1.40
2022-12-09T20:28:24.352Z,1.55
2022-12-09T20:33:25.767Z,1.30
2022-12-09T20:38:27.166Z,1.40
2022-12-09T20:43:29.308Z,1.33
2022-12-09T20:48:30.711Z,1.60
2022-12-09T20:53:32.441Z,1.98
2022-12-09T20:58:34.130Z,2.20
2022-12-09T21:03:35.714Z,1.63
2022-12-09T21:08:37.332Z,1.58
2022-12-09T21:13:40.183Z,1.30
2022-12-09T21:18:42.221Z,1.35
2022-12-09T21:23:44.258Z,0.85
2022-12-09T21:28:46.615Z,0.82
2022-12-09T21:33:49.026Z,1.13
2022-12-09T21:38:50.611Z,1.15
2022-12-09T21:43:52.666Z,1.13
2022-12-09T21:48:59.988Z,1.38
2022-12-09T21:54:04.651Z,1.83
2022-12-09T21:59:06.929Z,1.60
2022-12-09T22:04:09.842Z,1.50
2022-12-09T22:09:11.520Z,1.40
2022-12-09T22:14:12.959Z,1.25
2022-12-09T22:19:15.983Z,1.50
2022-12-09T22:24:18.411Z,1.05
2022-12-09T22:29:19.861Z,1.23
2022-12-09T22:34:21.313Z,1.48
2022-12-09T22:39:22.988Z,1.20
2022-12-09T22:44:24.457Z,1.60
2022-12-09T22:49:26.277Z,0.88
2022-12-09T22:54:27.688Z,0.88
2022-12-09T22:59:29.329Z,0.85
2022-12-09T23:04:30.767Z,1.10
2022-12-09T23:09:32.184Z,1.00
2022-12-09T23:14:33.634Z,1.33
2022-12-09T23:19:35.119Z,1.40
2022-12-09T23:24:36.615Z,1.02
2022-12-09T23:29:38.196Z,1.08
2022-12-09T23:34:40.058Z,1.25
2022-12-09T23:39:41.455Z,0.77
2022-12-09T23:44:42.856Z,1.17
2022-12-09T23:49:44.262Z,0.88
2022-12-09T23:54:45.663Z,1.17
2022-12-09T23:59:47.099Z,1.45
